Time;durP1;ratioP1;P1;durP2;ratioP2;P2;SDS_P1;SDS_P2;PMS_P1;PMS_P2;Temp;Humidity;BMP_temperature;BMP_pressure;BME280_temperature;BME280_humidity;BME280_pressure;Samples;Min_cycle;Max_cycle;Signal;HPM_P1;HPM_P2
2021/12/19 00:01:28;;;;;;;34.08;19.70;;;;;;;7.40;82.73;101746.38;5063096;28;20064;-84
2021/12/19 00:09:04;;;;;;;32.58;20.52;;;;;;;7.37;83.42;101744.03;5063620;28;20507;-84
2021/12/19 00:11:30;;;;;;;31.92;18.10;;;;;;;7.47;82.71;101732.84;5044188;28;20036;-85
2021/12/19 00:13:56;;;;;;;35.42;21.63;;;;;;;7.42;82.80;101735.31;5064418;28;20051;-86
2021/12/19 00:16:23;;;;;;;37.22;21.80;;;;;;;7.43;82.40;101732.41;5061642;28;20062;-86
2021/12/19 00:18:50;;;;;;;45.25;19.88;;;;;;;7.17;83.93;101733.84;5063272;28;20517;-86
2021/12/19 00:21:17;;;;;;;34.33;19.15;;;;;;;7.22;83.41;101728.66;5062644;28;20841;-86
2021/12/19 00:23:44;;;;;;;45.22;21.70;;;;;;;7.07;83.79;101734.16;5044928;28;20079;-86
2021/12/19 00:26:10;;;;;;;33.20;17.88;;;;;;;7.27;83.54;101729.97;5062687;28;20041;-87
2021/12/19 00:28:36;;;;;;;56.30;24.35;;;;;;;7.33;82.79;101724.59;5043730;28;20089;-84
2021/12/19 00:31:03;;;;;;;37.05;19.73;;;;;;;7.30;83.08;101718.72;5045027;28;20041;-86
2021/12/19 00:33:29;;;;;;;34.28;19.35;;;;;;;7.20;83.93;101722.59;5062004;28;20035;-86
2021/12/19 00:35:54;;;;;;;36.95;19.33;;;;;;;7.49;82.67;101717.22;5063305;28;20040;-86
2021/12/19 00:38:20;;;;;;;44.15;21.33;;;;;;;7.41;82.64;101722.78;5044693;28;20039;-84
2021/12/19 00:40:45;;;;;;;37.75;20.83;;;;;;;7.47;82.53;101730.13;5062644;28;20616;-86
2021/12/19 00:43:22;;;;;;;36.30;19.42;;;;;;;7.57;82.27;101729.78;5061733;28;20033;-85
2021/12/19 00:45:49;;;;;;;33.75;18.38;;;;;;;7.55;82.12;101712.88;5042223;28;20140;-86
2021/12/19 00:48:16;;;;;;;36.20;19.98;;;;;;;7.51;82.92;101712.44;5044997;28;20086;-85
2021/12/19 00:50:42;;;;;;;40.05;20.65;;;;;;;7.27;83.27;101713.69;5061176;28;20067;-85
2021/12/19 00:53:07;;;;;;;38.67;21.50;;;;;;;7.60;82.53;101710.41;5061627;28;20075;-87
2021/12/19 00:55:32;;;;;;;35.17;18.80;;;;;;;7.51;82.49;101712.44;5036753;28;20131;-85
2021/12/19 00:57:58;;;;;;;37.33;20.38;;;;;;;7.48;82.72;101710.13;5070844;28;20020;-85
2021/12/19 01:00:27;;;;;;;36.95;18.13;;;;;;;7.66;81.76;101708.78;5061162;28;20613;-85
2021/12/19 01:02:57;;;;;;;33.38;16.73;;;;;;;7.67;81.75;101705.03;5044122;28;20036;-85
2021/12/19 01:05:23;;;;;;;32.17;16.95;;;;;;;7.53;82.42;101704.94;5062737;28;20024;-85
2021/12/19 01:07:48;;;;;;;29.10;16.92;;;;;;;7.55;82.37;101702.00;5061724;28;20374;-85
2021/12/19 01:10:14;;;;;;;25.88;15.52;;;;;;;7.28;83.28;101690.94;5062025;28;20029;-85
2021/12/19 01:12:40;;;;;;;31.60;16.02;;;;;;;7.53;83.22;101695.94;5061970;28;20054;-84
2021/12/19 01:15:08;;;;;;;30.35;13.90;;;;;;;7.63;82.38;101695.63;5062776;28;20028;-86
2021/12/19 01:17:33;;;;;;;28.55;14.75;;;;;;;7.22;83.39;101681.72;5061897;28;20190;-86
2021/12/19 01:19:59;;;;;;;25.98;13.45;;;;;;;7.64;82.01;101683.72;5061460;28;20021;-85
2021/12/19 01:22:24;;;;;;;23.00;12.52;;;;;;;7.57;81.87;101681.78;5062969;28;20028;-86
2021/12/19 01:27:53;;;;;;;24.85;14.38;;;;;;;7.62;82.05;101681.19;5053674;28;20050;-85
2021/12/19 01:30:18;;;;;;;22.17;13.20;;;;;;;7.56;82.10;101687.41;5060978;28;20024;-83
2021/12/19 01:32:45;;;;;;;21.58;11.50;;;;;;;7.46;82.08;101687.75;5062128;28;20048;-85
2021/12/19 01:35:12;;;;;;;21.67;11.98;;;;;;;7.48;82.64;101685.69;5061931;28;20028;-85
2021/12/19 01:37:39;;;;;;;30.45;11.85;;;;;;;7.52;82.26;101686.13;5061966;28;20536;-85
2021/12/19 01:40:06;;;;;;;26.15;12.63;;;;;;;7.52;82.64;101688.84;5062171;28;20136;-84
2021/12/19 01:42:37;;;;;;;24.42;11.95;;;;;;;7.35;82.61;101694.56;5044256;28;20511;-85
2021/12/19 01:45:07;;;;;;;23.25;11.88;;;;;;;7.55;82.25;101694.72;5043341;28;20033;-85
2021/12/19 01:47:32;;;;;;;23.73;10.93;;;;;;;7.34;82.74;101680.13;5059796;28;20021;-83
2021/12/19 01:49:57;;;;;;;20.80;11.23;;;;;;;7.50;82.61;101685.50;5061644;28;20020;-84
2021/12/19 01:52:24;;;;;;;21.35;10.63;;;;;;;7.45;82.67;101686.06;5044277;28;20032;-86
2021/12/19 01:54:50;;;;;;;28.75;12.88;;;;;;;7.36;83.25;101680.78;5061469;28;20032;-85
2021/12/19 01:57:17;;;;;;;21.83;10.75;;;;;;;7.53;82.79;101677.78;5061535;28;20119;-85
2021/12/19 01:59:42;;;;;;;27.23;15.32;;;;;;;7.53;82.73;101677.78;5059826;28;20017;-84
2021/12/19 02:02:08;;;;;;;28.23;14.95;;;;;;;7.47;82.14;101667.72;5061620;28;20568;-85
2021/12/19 02:07:57;;;;;;;23.33;13.57;;;;;;;7.59;82.08;101668.84;5058612;28;20089;-86
2021/12/19 02:10:25;;;;;;;32.33;15.10;;;;;;;7.62;82.23;101670.34;5061035;28;20035;-85
2021/12/19 02:12:52;;;;;;;30.60;13.63;;;;;;;7.50;82.25;101667.34;5042077;28;20565;-85
2021/12/19 02:15:22;;;;;;;24.70;12.57;;;;;;;7.20;83.65;101665.63;5042898;28;20048;-85
2021/12/19 02:17:50;;;;;;;36.72;16.90;;;;;;;7.32;83.40;101655.06;5061234;28;20513;-85
2021/12/19 02:20:16;;;;;;;24.50;12.55;;;;;;;7.29;83.77;101658.19;5061089;28;20029;-85
2021/12/19 02:22:43;;;;;;;19.67;11.23;;;;;;;7.37;83.88;101657.19;5061124;28;20038;-85
2021/12/19 02:25:09;;;;;;;27.80;12.75;;;;;;;7.52;82.82;101650.84;5059795;28;20063;-85
2021/12/19 02:27:35;;;;;;;23.92;12.77;;;;;;;7.48;82.88;101650.41;5061683;28;20062;-85
2021/12/19 02:30:01;;;;;;;27.83;12.15;;;;;;;7.54;82.62;101646.91;5060346;28;20056;-84
2021/12/19 02:32:28;;;;;;;35.50;16.17;;;;;;;7.37;83.36;101651.78;5061602;28;20086;-85
2021/12/19 02:34:56;;;;;;;30.83;16.38;;;;;;;7.31;83.26;101642.56;5061081;28;20029;-86
2021/12/19 02:48:13;;;;;;;25.80;14.10;;;;;;;7.32;83.55;101641.50;5061078;28;20521;-84
2021/12/19 02:50:45;;;;;;;27.80;14.05;;;;;;;7.30;83.49;101640.84;5060580;28;20115;-86
2021/12/19 02:53:11;;;;;;;33.75;14.07;;;;;;;7.33;83.26;101635.06;5061791;28;20064;-86
2021/12/19 02:55:37;;;;;;;24.20;12.25;;;;;;;7.19;83.90;101633.25;5060249;28;21053;-85
2021/12/19 02:58:03;;;;;;;29.88;15.85;;;;;;;7.08;84.14;101631.91;5060441;28;20842;-86
2021/12/19 03:00:28;;;;;;;24.20;12.18;;;;;;;7.20;84.39;101629.53;5040937;28;20029;-84
2021/12/19 03:02:57;;;;;;;25.17;13.00;;;;;;;7.29;83.33;101628.34;5050975;28;20017;-84
2021/12/19 03:05:23;;;;;;;23.95;13.70;;;;;;;7.39;83.20;101624.44;5067287;28;20024;-85
2021/12/19 03:07:50;;;;;;;26.90;14.13;;;;;;;7.39;83.52;101621.72;5050217;28;20404;-85
2021/12/19 03:21:23;;;;;;;36.28;17.13;;;;;;;7.41;83.44;101611.50;5069949;28;20067;-85
2021/12/19 03:23:49;;;;;;;28.33;15.80;;;;;;;7.25;83.46;101618.91;5071588;28;20028;-84
2021/12/19 03:26:14;;;;;;;28.10;14.50;;;;;;;7.21;83.75;101609.50;5071711;28;20023;-85
2021/12/19 03:28:40;;;;;;;25.40;14.50;;;;;;;7.35;82.94;101600.41;5074631;28;20024;-84
2021/12/19 03:31:05;;;;;;;28.58;14.82;;;;;;;7.27;83.70;101603.28;5072901;28;20080;-84
2021/12/19 03:33:31;;;;;;;29.45;14.48;;;;;;;7.17;83.54;101605.50;5053819;28;20048;-84
2021/12/19 03:35:57;;;;;;;32.30;15.18;;;;;;;7.41;83.04;101597.94;5052969;28;20088;-84
2021/12/19 03:38:23;;;;;;;26.05;12.27;;;;;;;7.40;83.03;101593.56;5070210;28;20036;-83
2021/12/19 03:41:05;;;;;;;23.92;11.52;;;;;;;7.33;82.67;101596.22;5072474;28;20028;-83
2021/12/19 03:43:31;;;;;;;19.08;9.68;;;;;;;7.37;82.37;101592.06;5066048;28;20290;-84
2021/12/19 03:45:56;;;;;;;13.60;7.13;;;;;;;7.42;82.51;101586.91;5068302;28;20585;-84
2021/12/19 03:48:22;;;;;;;14.38;7.35;;;;;;;7.38;82.51;101576.63;5070041;28;20115;-83
2021/12/19 03:50:49;;;;;;;11.63;6.55;;;;;;;7.50;81.40;101580.47;5050879;28;20027;-84
2021/12/19 03:53:17;;;;;;;18.38;7.88;;;;;;;7.52;81.75;101577.56;5053276;28;20138;-84
2021/12/19 03:55:43;;;;;;;15.93;6.50;;;;;;;7.34;81.57;101577.03;5073205;28;20118;-83
2021/12/19 03:58:08;;;;;;;21.40;7.75;;;;;;;7.38;82.09;101571.22;5071619;28;20485;-84
2021/12/19 04:03:45;;;;;;;13.90;6.70;;;;;;;7.22;82.65;101560.44;5072002;28;20490;-84
2021/12/19 04:06:11;;;;;;;14.40;7.38;;;;;;;7.33;81.85;101560.94;5049145;28;20700;-84
2021/12/19 04:08:36;;;;;;;12.68;6.97;;;;;;;7.26;81.76;101560.88;5068835;28;20024;-84
2021/12/19 04:11:02;;;;;;;16.40;8.25;;;;;;;7.22;82.65;101551.50;5073458;28;20032;-84
2021/12/19 04:13:27;;;;;;;17.40;8.88;;;;;;;7.15;81.88;101553.31;5071087;28;20021;-85
2021/12/19 04:15:53;;;;;;;18.80;7.40;;;;;;;7.05;82.87;101551.78;5072418;28;20132;-84
2021/12/19 04:18:19;;;;;;;19.17;10.30;;;;;;;7.23;82.29;101550.44;5070583;28;20383;-84
2021/12/19 04:20:44;;;;;;;15.40;7.95;;;;;;;7.22;82.53;101548.78;5069549;28;20032;-84
2021/12/19 04:23:10;;;;;;;11.93;5.82;;;;;;;7.19;82.52;101554.59;5073396;28;20543;-85
2021/12/19 04:25:35;;;;;;;13.05;7.68;;;;;;;7.22;82.60;101540.66;5069066;28;20051;-85
2021/12/19 04:28:01;;;;;;;16.15;6.65;;;;;;;7.21;82.66;101539.81;5054476;28;20028;-85
2021/12/19 04:30:26;;;;;;;16.13;6.45;;;;;;;7.44;81.97;101537.84;5068818;28;20531;-82
2021/12/19 04:33:00;;;;;;;14.43;8.13;;;;;;;7.24;82.39;101533.16;5053250;28;20082;-84
2021/12/19 04:35:31;;;;;;;15.00;9.02;;;;;;;7.35;82.19;101537.16;5051966;28;20031;-86
2021/12/19 04:51:50;;;;;;;15.65;7.18;;;;;;;7.12;83.11;101519.28;5068809;28;20052;-85
2021/12/19 04:59:51;;;;;;;15.90;6.97;;;;;;;7.18;82.10;101523.91;5069512;28;20147;-81
2021/12/19 05:15:45;;;;;;;12.15;5.90;;;;;;;7.17;81.47;101508.69;5070908;28;20036;-85
2021/12/19 05:18:10;;;;;;;12.02;4.55;;;;;;;6.93;82.02;101504.56;5069905;28;20039;-85
2021/12/19 05:20:38;;;;;;;10.63;5.45;;;;;;;6.98;82.07;101513.75;5071253;28;20036;-84
2021/12/19 05:23:23;;;;;;;8.75;3.47;;;;;;;7.23;80.85;101501.63;5068417;28;20761;-85
2021/12/19 05:25:48;;;;;;;11.93;4.25;;;;;;;6.97;81.41;101508.53;5067915;28;20024;-84
2021/12/19 05:28:13;;;;;;;12.70;5.13;;;;;;;6.95;82.16;101507.91;5070525;28;20031;-84
2021/12/19 05:33:46;;;;;;;9.13;3.95;;;;;;;7.03;81.43;101510.47;5035080;28;20060;-84
2021/12/19 05:46:41;;;;;;;12.35;4.80;;;;;;;6.78;81.66;101502.78;5044395;28;20036;-86
2021/12/19 05:49:09;;;;;;;12.52;6.22;;;;;;;6.83;81.61;101489.47;5044027;28;20099;-84
2021/12/19 05:51:36;;;;;;;16.17;5.60;;;;;;;6.86;81.25;101499.06;5045130;28;20097;-85
2021/12/19 05:54:02;;;;;;;8.77;3.90;;;;;;;7.24;80.58;101489.75;5043272;28;20013;-85
2021/12/19 05:56:27;;;;;;;9.60;4.03;;;;;;;7.28;79.88;101493.69;5045517;28;20056;-85
2021/12/19 05:58:52;;;;;;;11.30;5.38;;;;;;;7.15;79.87;101497.19;5041717;28;20131;-84
2021/12/19 06:01:18;;;;;;;14.77;5.72;;;;;;;6.96;80.60;101501.44;5038343;28;20037;-84
2021/12/19 06:03:44;;;;;;;14.18;7.00;;;;;;;7.09;80.75;101506.97;5041418;28;20033;-85
2021/12/19 06:06:09;;;;;;;18.00;8.05;;;;;;;7.12;80.43;101508.41;5039741;28;20029;-85
2021/12/19 06:08:34;;;;;;;19.65;8.75;;;;;;;6.96;80.94;101502.28;5040135;28;20088;-85
2021/12/19 06:11:00;;;;;;;18.35;7.28;;;;;;;6.70;82.20;101492.91;5041454;28;20036;-84
2021/12/19 06:13:25;;;;;;;16.50;7.43;;;;;;;6.83;81.39;101505.75;5039433;28;20025;-85
2021/12/19 06:15:53;;;;;;;14.98;7.10;;;;;;;6.65;81.49;101498.09;5040774;28;20033;-83
2021/12/19 06:18:19;;;;;;;12.77;6.43;;;;;;;6.54;81.62;101507.59;5038614;28;20032;-85
2021/12/19 06:20:44;;;;;;;13.98;5.95;;;;;;;6.62;81.01;101510.16;5042934;28;20404;-84
2021/12/19 06:23:09;;;;;;;13.68;5.43;;;;;;;6.78;80.77;101500.06;5044306;28;20115;-85
2021/12/19 06:25:35;;;;;;;10.23;3.85;;;;;;;6.88;80.16;101492.41;5046368;28;20017;-84
2021/12/19 06:28:00;;;;;;;9.43;5.18;;;;;;;6.80;80.61;101494.44;5044754;28;20032;-85
2021/12/19 06:30:27;;;;;;;7.93;3.35;;;;;;;6.66;80.66;101494.34;5043739;28;20425;-84
2021/12/19 06:32:53;;;;;;;10.60;4.40;;;;;;;6.92;80.28;101498.28;5057418;28;20044;-84
2021/12/19 06:35:19;;;;;;;8.60;2.95;;;;;;;6.99;79.31;101496.47;5069095;28;20082;-84
2021/12/19 06:37:46;;;;;;;7.60;3.00;;;;;;;6.60;79.70;101489.69;5068100;28;20032;-82
2021/12/19 06:40:15;;;;;;;11.13;3.83;;;;;;;6.49;80.55;101488.38;5067324;28;20046;-84
2021/12/19 06:42:41;;;;;;;7.82;3.15;;;;;;;6.64;80.84;101480.97;5062062;28;20025;-85
2021/12/19 06:45:08;;;;;;;6.85;2.83;;;;;;;6.60;80.37;101479.69;5062124;28;20102;-84
2021/12/19 06:47:33;;;;;;;9.25;3.67;;;;;;;6.72;80.69;101473.72;5050697;28;20025;-85
2021/12/19 06:49:58;;;;;;;7.22;3.58;;;;;;;6.89;80.29;101458.84;5070374;28;21407;-85
2021/12/19 06:52:24;;;;;;;6.65;2.83;;;;;;;6.95;79.06;101459.94;5072295;28;20036;-84
2021/12/19 06:54:49;;;;;;;9.60;3.67;;;;;;;6.85;79.50;101454.88;5073954;28;20392;-84
2021/12/19 06:57:26;;;;;;;10.73;3.80;;;;;;;6.96;79.54;101466.19;5070392;28;20115;-85
2021/12/19 06:59:52;;;;;;;8.82;5.00;;;;;;;6.80;80.05;101459.19;5070799;28;20052;-84
2021/12/19 07:02:17;;;;;;;7.75;3.38;;;;;;;6.51;80.83;101456.47;5071202;28;20101;-85
2021/12/19 07:04:44;;;;;;;7.22;3.67;;;;;;;6.52;80.69;101460.88;5072365;28;20031;-83
2021/12/19 07:07:10;;;;;;;11.82;4.53;;;;;;;6.77;80.04;101458.53;5071922;28;20102;-85
2021/12/19 07:09:35;;;;;;;15.10;4.45;;;;;;;6.60;80.18;101452.59;5052020;28;20024;-86
2021/12/19 07:12:02;;;;;;;9.48;4.20;;;;;;;6.61;80.49;101454.25;5074415;28;20028;-85
2021/12/19 07:14:27;;;;;;;9.18;4.13;;;;;;;6.86;80.14;101456.53;5069601;28;20062;-84
2021/12/19 07:16:52;;;;;;;8.80;3.85;;;;;;;6.95;79.34;101459.09;5071160;28;20033;-84
2021/12/19 07:19:18;;;;;;;11.10;4.15;;;;;;;6.85;79.10;101454.88;5074239;28;20463;-86
2021/12/19 07:21:43;;;;;;;9.05;3.10;;;;;;;6.95;79.69;101448.25;5073564;28;20028;-84
2021/12/19 07:24:08;;;;;;;8.38;3.20;;;;;;;6.91;79.54;101457.81;5068053;28;21338;-84
2021/12/19 07:26:33;;;;;;;8.18;3.38;;;;;;;7.00;79.82;101454.75;5066985;28;20049;-83
2021/12/19 07:28:59;;;;;;;11.52;3.58;;;;;;;6.82;80.37;101449.81;5069140;28;20016;-86
2021/12/19 07:31:24;;;;;;;9.57;4.13;;;;;;;6.85;80.24;101460.28;5067938;28;20016;-86
2021/12/19 07:33:50;;;;;;;10.18;5.55;;;;;;;7.04;79.54;101459.78;5070348;28;20044;-85
2021/12/19 07:36:18;;;;;;;8.18;4.68;;;;;;;6.95;79.99;101456.38;5063570;28;20029;-86
2021/12/19 07:39:00;;;;;;;10.13;4.10;;;;;;;7.02;79.66;101448.28;5051763;28;20377;-85
2021/12/19 07:41:26;;;;;;;9.27;5.20;;;;;;;6.87;80.35;101446.53;5062752;28;20213;-86
2021/12/19 07:43:51;;;;;;;9.68;3.75;;;;;;;7.04;79.47;101446.22;5062860;28;20469;-85
2021/12/19 07:46:17;;;;;;;11.07;3.50;;;;;;;7.01;79.33;101439.31;5063749;28;20029;-85
2021/12/19 07:48:42;;;;;;;10.82;4.82;;;;;;;6.97;79.52;101444.31;5062327;28;20035;-85
2021/12/19 07:51:19;;;;;;;10.43;4.15;;;;;;;6.84;80.31;101450.47;5064074;28;20039;-86
2021/12/19 07:53:45;;;;;;;9.00;3.47;;;;;;;7.08;79.25;101444.75;5064574;28;20124;-85
2021/12/19 07:56:10;;;;;;;11.38;5.40;;;;;;;6.73;80.25;101451.84;5067638;28;20410;-85
2021/12/19 07:58:36;;;;;;;10.98;4.50;;;;;;;6.98;79.85;101447.84;5065302;28;20120;-87
2021/12/19 08:01:01;;;;;;;10.70;4.85;;;;;;;7.03;79.95;101434.53;5061278;28;20039;-87
2021/12/19 08:03:27;;;;;;;11.43;6.53;;;;;;;7.04;79.82;101429.94;5044943;28;20183;-87
2021/12/19 08:05:52;;;;;;;10.48;5.40;;;;;;;6.80;80.37;101430.22;5061899;28;20032;-87
2021/12/19 08:08:25;;;;;;;9.65;4.72;;;;;;;6.83;80.33;101432.53;5063054;28;20040;-85
2021/12/19 08:13:15;;;;;;;12.07;5.43;;;;;;;7.03;80.44;101433.69;5068332;28;20025;-87
2021/12/19 08:15:41;;;;;;;8.63;3.83;;;;;;;6.94;80.43;101430.28;5069096;28;20031;-90
2021/12/19 08:18:06;;;;;;;8.98;3.67;;;;;;;6.87;80.72;101425.69;5052796;28;20213;-88
2021/12/19 08:20:33;;;;;;;10.82;4.55;;;;;;;6.98;80.39;101421.56;5071487;28;20020;-88
2021/12/19 08:22:58;;;;;;;12.63;4.68;;;;;;;6.90;80.54;101421.72;5051418;28;20028;-88
2021/12/19 08:25:26;;;;;;;11.25;4.82;;;;;;;6.63;81.81;101422.38;5071371;28;20017;-88
2021/12/19 08:27:51;;;;;;;11.10;5.32;;;;;;;6.69;82.15;101425.34;5066503;28;20024;-89
2021/12/19 08:30:17;;;;;;;13.00;6.35;;;;;;;6.98;80.99;101426.13;5072506;28;21426;-88
2021/12/19 08:32:42;;;;;;;13.15;5.22;;;;;;;7.00;80.46;101418.63;5053261;28;20067;-85
2021/12/19 08:35:09;;;;;;;12.32;6.10;;;;;;;7.05;80.55;101416.19;5069732;28;20020;-86
2021/12/19 08:37:35;;;;;;;14.02;7.13;;;;;;;7.09;80.29;101422.88;5073323;28;20024;-90
2021/12/19 08:40:03;;;;;;;13.45;5.45;;;;;;;6.84;81.77;101420.63;5050748;28;20031;-92
2021/12/19 08:42:31;;;;;;;15.35;7.30;;;;;;;6.60;83.02;101414.66;5069750;28;20123;-85
2021/12/19 08:44:57;;;;;;;16.90;8.43;;;;;;;6.82;82.44;101411.88;5051453;28;20475;-87
2021/12/19 08:47:22;;;;;;;23.17;10.13;;;;;;;6.95;81.25;101410.28;5070155;28;20070;-88
2021/12/19 08:49:47;;;;;;;18.67;9.10;;;;;;;7.00;82.00;101403.22;5072758;28;20035;-88
2021/12/19 08:52:13;;;;;;;15.95;9.05;;;;;;;7.18;80.96;101401.00;5072104;28;20028;-88
2021/12/19 08:54:38;;;;;;;18.02;7.82;;;;;;;7.26;80.43;101400.81;5070621;28;20020;-88
2021/12/19 08:57:04;;;;;;;16.33;8.63;;;;;;;6.71;83.04;101404.31;5052260;28;20482;-90
2021/12/19 08:59:29;;;;;;;15.70;8.40;;;;;;;6.97;81.98;101402.78;5053012;28;20021;-88
2021/12/19 09:01:58;;;;;;;17.23;7.43;;;;;;;7.09;81.23;101411.19;5069607;28;20032;-86
2021/12/19 09:04:23;;;;;;;15.75;6.68;;;;;;;7.10;81.75;101405.56;5070052;28;20037;-85
2021/12/19 09:06:49;;;;;;;17.25;8.23;;;;;;;7.28;80.50;101404.16;5071790;28;20356;-88
2021/12/19 09:09:15;;;;;;;16.70;7.43;;;;;;;7.34;80.06;101392.50;5071530;28;20020;-86
2021/12/19 09:11:40;;;;;;;14.45;6.15;;;;;;;7.12;81.05;101389.91;5069560;28;20057;-86
2021/12/19 09:14:06;;;;;;;17.33;7.75;;;;;;;7.21;81.10;101396.03;5069274;28;20041;-85
2021/12/19 09:16:32;;;;;;;17.88;8.68;;;;;;;7.23;81.16;101398.53;5068426;28;20013;-84
2021/12/19 09:18:57;;;;;;;15.73;7.57;;;;;;;6.93;81.60;101396.94;5068198;28;20100;-84
2021/12/19 09:21:22;;;;;;;12.48;7.18;;;;;;;7.05;81.58;101393.63;5062466;28;20035;-85
2021/12/19 09:23:48;;;;;;;14.38;7.35;;;;;;;7.15;81.27;101391.41;5066269;28;20027;-86
2021/12/19 09:26:13;;;;;;;21.98;8.68;;;;;;;6.99;82.05;101379.00;5071117;28;20108;-84
2021/12/19 09:28:39;;;;;;;18.60;7.57;;;;;;;7.22;81.04;101388.72;5068868;28;20024;-85
2021/12/19 09:31:18;;;;;;;17.17;9.40;;;;;;;7.26;81.11;101386.44;5069410;28;20103;-86
2021/12/19 09:33:43;;;;;;;19.52;8.40;;;;;;;6.99;82.38;101396.13;5068463;28;20451;-88
2021/12/19 09:36:08;;;;;;;17.27;9.02;;;;;;;7.26;81.23;101394.56;5068338;28;20021;-84
2021/12/19 09:38:35;;;;;;;20.75;11.60;;;;;;;6.68;83.20;101393.84;5068375;28;20017;-88
2021/12/19 09:41:11;;;;;;;18.15;8.70;;;;;;;7.01;82.50;101387.78;5067283;28;20105;-87
2021/12/19 09:43:41;;;;;;;13.63;7.85;;;;;;;7.27;81.35;101397.06;5050044;28;20039;-85
2021/12/19 09:46:19;;;;;;;15.85;7.70;;;;;;;7.36;80.75;101384.19;5041837;28;20032;-86
2021/12/19 09:48:48;;;;;;;19.35;8.50;;;;;;;7.25;81.00;101377.44;5070614;28;20024;-87
2021/12/19 09:51:15;;;;;;;14.02;5.72;;;;;;;7.07;81.77;101381.56;5070051;28;20024;-84
2021/12/19 09:53:41;;;;;;;11.50;6.03;;;;;;;7.00;81.97;101378.81;5065944;28;20107;-83
2021/12/19 09:56:07;;;;;;;20.63;7.38;;;;;;;6.98;82.15;101377.31;5067471;28;20127;-83
2021/12/19 09:58:34;;;;;;;14.10;7.68;;;;;;;6.97;81.79;101370.25;5068620;28;20105;-83
2021/12/19 10:01:01;;;;;;;14.60;6.82;;;;;;;6.85;82.83;101373.53;5070769;28;20059;-84
2021/12/19 10:03:27;;;;;;;16.08;7.43;;;;;;;6.82;82.10;101373.91;5049290;28;20579;-85
2021/12/19 10:06:17;;;;;;;12.27;5.85;;;;;;;6.98;82.24;101367.31;5072175;28;20025;-83
2021/12/19 10:08:45;;;;;;;14.73;7.30;;;;;;;6.94;82.28;101367.91;5052693;28;20047;-87
2021/12/19 10:11:34;;;;;;;11.13;5.35;;;;;;;7.19;82.20;101359.28;5065576;28;20035;-83
2021/12/19 10:13:59;;;;;;;10.02;4.88;;;;;;;7.16;81.51;101352.38;5050027;28;20119;-87
2021/12/19 10:16:29;;;;;;;16.10;5.28;;;;;;;7.11;81.38;101350.28;5068302;28;20019;-85
2021/12/19 10:18:57;;;;;;;8.43;4.15;;;;;;;7.17;81.09;101353.22;5068998;28;20097;-89
2021/12/19 10:21:23;;;;;;;9.45;4.30;;;;;;;6.70;82.62;101364.66;5066257;28;20016;-88
2021/12/19 10:23:48;;;;;;;9.80;4.30;;;;;;;7.10;81.27;101356.72;5068432;28;20486;-89
2021/12/19 10:26:41;;;;;;;10.02;5.80;;;;;;;6.81;82.31;101356.00;5069593;28;20035;-88
2021/12/19 10:29:07;;;;;;;8.23;4.57;;;;;;;7.07;81.79;101343.59;5067554;28;20029;-91
2021/12/19 10:31:32;;;;;;;8.93;3.88;;;;;;;7.16;81.02;101336.09;5068733;28;20025;-84
2021/12/19 10:33:58;;;;;;;8.07;3.33;;;;;;;6.81;81.41;101339.72;5050854;28;20518;-91
2021/12/19 10:36:24;;;;;;;5.57;2.55;;;;;;;6.91;81.69;101338.50;5069124;28;20013;-87
2021/12/19 10:38:56;;;;;;;5.63;2.60;;;;;;;6.80;81.86;101335.31;5068380;28;20082;-88
2021/12/19 10:41:33;;;;;;;6.53;3.22;;;;;;;6.80;82.00;101335.31;5067181;28;20116;-89
2021/12/19 10:44:11;;;;;;;5.95;2.90;;;;;;;6.89;81.43;101320.53;5049655;28;20044;-86
2021/12/19 10:46:42;;;;;;;16.25;3.83;;;;;;;7.15;81.14;101328.16;5068293;28;20075;-84
2021/12/19 10:49:34;;;;;;;7.13;3.70;;;;;;;7.15;80.91;101322.75;5068442;28;20020;-88
2021/12/19 10:52:04;;;;;;;7.00;3.60;;;;;;;7.28;80.66;101321.97;5051717;28;20024;-84
2021/12/19 10:54:30;;;;;;;5.47;2.78;;;;;;;7.23;80.35;101315.25;5068562;28;20025;-84
2021/12/19 10:57:10;;;;;;;9.52;4.18;;;;;;;7.27;80.52;101315.69;5066701;28;20093;-87
2021/12/19 10:59:36;;;;;;;8.65;4.35;;;;;;;6.98;80.73;101306.81;5048368;28;20031;-89
2021/12/19 11:02:01;;;;;;;5.43;2.70;;;;;;;7.02;81.24;101308.09;5067847;28;20032;-88
2021/12/19 11:04:27;;;;;;;10.82;4.75;;;;;;;7.19;81.08;101295.00;5066112;28;20538;-88
2021/12/19 11:06:56;;;;;;;11.20;4.75;;;;;;;7.32;80.39;101291.47;5061509;28;20029;-84
2021/12/19 11:09:27;;;;;;;7.90;3.42;;;;;;;7.28;80.74;101290.22;5058928;28;20511;-86
2021/12/19 11:12:03;;;;;;;12.43;7.13;;;;;;;7.22;80.60;101288.34;5065369;28;20036;-86
2021/12/19 11:14:43;;;;;;;11.27;5.85;;;;;;;7.28;80.54;101283.97;5049114;28;20025;-85
2021/12/19 11:17:11;;;;;;;7.88;4.10;;;;;;;7.20;80.79;101277.69;5047946;28;20036;-86
2021/12/19 11:19:38;;;;;;;10.23;5.22;;;;;;;7.13;81.39;101271.41;5068565;28;20043;-88
2021/12/19 11:22:05;;;;;;;9.30;4.80;;;;;;;7.05;80.63;101275.16;5048877;28;20028;-86
2021/12/19 11:24:30;;;;;;;5.95;3.42;;;;;;;6.99;80.66;101271.38;5068328;28;20036;-86
2021/12/19 11:26:59;;;;;;;8.40;5.43;;;;;;;6.96;81.30;101277.19;5069139;28;20016;-84
2021/12/19 11:29:25;;;;;;;7.90;4.00;;;;;;;7.31;80.55;101267.28;5067844;28;20047;-84
2021/12/19 11:34:56;;;;;;;6.03;3.10;;;;;;;7.38;80.59;101264.56;5065581;28;20077;-89
2021/12/19 11:37:35;;;;;;;6.88;2.78;;;;;;;7.04;80.51;101253.66;5067693;28;20162;-83
2021/12/19 11:40:03;;;;;;;4.93;2.55;;;;;;;7.23;80.09;101249.31;5069432;28;20020;-84
2021/12/19 11:42:34;;;;;;;3.97;2.40;;;;;;;7.43;79.36;101256.63;5068351;28;20067;-84
2021/12/19 11:45:26;;;;;;;4.40;2.20;;;;;;;7.52;79.26;101258.13;5067987;28;20639;-85
2021/12/19 11:47:58;;;;;;;5.18;2.28;;;;;;;7.29;79.05;101258.50;5064721;28;20048;-84
2021/12/19 11:50:36;;;;;;;6.20;2.72;;;;;;;7.41;79.59;101251.44;5073222;28;20039;-87
2021/12/19 11:53:07;;;;;;;6.80;3.13;;;;;;;7.21;79.94;101243.25;5070688;28;20093;-87
2021/12/19 11:55:38;;;;;;;4.10;1.85;;;;;;;7.45;79.16;101241.00;5050627;28;20094;-85
2021/12/19 11:58:09;;;;;;;4.47;2.03;;;;;;;7.09;79.40;101241.16;5064221;28;20032;-82
2021/12/19 12:00:44;;;;;;;3.97;1.70;;;;;;;7.03;80.11;101239.25;5069128;28;20059;-86
2021/12/19 12:03:12;;;;;;;5.82;1.98;;;;;;;7.22;79.17;101237.63;5071197;28;20478;-82
2021/12/19 12:05:39;;;;;;;6.57;2.53;;;;;;;7.09;79.80;101241.16;5070001;28;20035;-82
2021/12/19 12:08:04;;;;;;;6.25;2.40;;;;;;;7.31;79.19;101232.84;5071364;28;20101;-82
2021/12/19 12:10:48;;;;;;;4.22;1.88;;;;;;;7.10;79.33;101231.97;5054625;28;20099;-82
2021/12/19 12:13:40;;;;;;;3.50;1.98;;;;;;;6.74;80.78;101233.13;5069799;28;20023;-85
2021/12/19 12:16:28;;;;;;;4.25;1.60;;;;;;;7.09;79.57;101227.59;5069555;28;20118;-83
2021/12/19 12:18:57;;;;;;;3.20;1.65;;;;;;;6.74;80.31;101219.56;5071207;28;20407;-82
2021/12/19 12:23:53;;;;;;;4.88;2.30;;;;;;;7.29;79.22;101209.66;5070949;28;20029;-79
2021/12/19 12:26:41;;;;;;;2.60;1.15;;;;;;;7.18;79.05;101209.22;5067735;28;20405;-84
2021/12/19 12:29:08;;;;;;;3.13;1.13;;;;;;;7.27;78.86;101201.75;5067928;28;20028;-88
2021/12/19 12:31:33;;;;;;;2.60;1.35;;;;;;;7.27;79.12;101199.03;5068872;28;20044;-83
2021/12/19 12:34:12;;;;;;;2.33;1.13;;;;;;;7.36;78.72;101186.09;5047890;28;20063;-81
2021/12/19 12:36:38;;;;;;;1.42;1.02;;;;;;;7.40;78.29;101184.66;5049891;28;20048;-84
2021/12/19 12:39:11;;;;;;;4.78;2.22;;;;;;;7.54;77.72;101182.75;5049079;28;20095;-85
2021/12/19 12:41:50;;;;;;;2.78;1.50;;;;;;;7.29;78.26;101179.81;5049581;28;20037;-89
2021/12/19 12:44:30;;;;;;;3.72;1.40;;;;;;;7.36;78.21;101183.38;5038907;28;20408;-85
2021/12/19 12:46:56;;;;;;;4.40;1.75;;;;;;;7.46;77.79;101177.53;5041367;28;20041;-87
2021/12/19 12:49:34;;;;;;;7.65;2.85;;;;;;;7.47;78.23;101169.19;5041942;28;20026;-90
2021/12/19 12:52:02;;;;;;;3.10;1.52;;;;;;;7.54;77.68;101163.75;5039534;28;20453;-87
2021/12/19 12:54:35;;;;;;;5.93;2.05;;;;;;;7.42;78.35;101162.72;5041896;28;20029;-86
2021/12/19 12:57:04;;;;;;;3.70;2.17;;;;;;;7.43;78.24;101156.22;5039113;28;20029;-86
2021/12/19 12:59:32;;;;;;;6.65;2.65;;;;;;;7.34;78.58;101152.91;5041490;28;20029;-87